createdAt,value
2022-12-03T00:02:21.302Z,5.93
2022-12-03T00:04:48.307Z,5.03
2022-12-03T00:07:15.119Z,5.20
2022-12-03T00:09:42.821Z,5.00
2022-12-03T00:12:09.713Z,5.50
2022-12-03T00:14:41.299Z,4.90
2022-12-03T00:17:11.246Z,5.20
2022-12-03T00:19:38.054Z,4.80
2022-12-03T00:22:04.963Z,5.00
2022-12-03T00:24:31.773Z,5.33
2022-12-03T00:26:58.585Z,4.97
2022-12-03T00:29:25.445Z,4.30
2022-12-03T00:31:52.371Z,5.00
2022-12-03T00:34:19.257Z,5.23
2022-12-03T00:36:46.113Z,4.90
2022-12-03T00:39:12.945Z,5.53
2022-12-03T00:41:39.766Z,4.80
2022-12-03T00:44:06.665Z,4.40
2022-12-03T00:46:33.585Z,5.70
2022-12-03T00:49:00.580Z,4.73
2022-12-03T00:51:27.410Z,5.17
2022-12-03T00:53:54.290Z,5.43
2022-12-03T00:56:21.162Z,5.13
2022-12-03T00:58:48.058Z,5.53
2022-12-03T01:01:14.928Z,5.20
2022-12-03T01:03:41.778Z,5.10
2022-12-03T01:06:08.831Z,4.93
2022-12-03T01:08:35.874Z,5.17
2022-12-03T01:11:02.767Z,6.00
2022-12-03T01:13:29.599Z,4.40
2022-12-03T01:15:56.442Z,5.57
2022-12-03T01:18:23.280Z,5.17
2022-12-03T01:20:50.103Z,4.50
2022-12-03T01:23:16.957Z,4.80
2022-12-03T01:25:43.763Z,4.77
2022-12-03T01:28:10.595Z,5.00
2022-12-03T01:30:57.495Z,5.23
2022-12-03T01:33:24.312Z,4.57
2022-12-03T01:35:51.205Z,4.63
2022-12-03T01:38:18.033Z,4.40
2022-12-03T01:40:44.851Z,4.80
2022-12-03T01:43:11.648Z,5.07
2022-12-03T01:45:38.531Z,4.90
2022-12-03T01:48:05.443Z,5.20
2022-12-03T01:50:34.011Z,5.30
2022-12-03T01:53:03.148Z,4.40
2022-12-03T01:55:30.510Z,4.20
2022-12-03T01:58:00.515Z,4.50
2022-12-03T02:00:28.689Z,4.90
2022-12-03T02:03:07.512Z,4.60
2022-12-03T02:05:34.502Z,5.13
2022-12-03T02:08:01.698Z,5.30
2022-12-03T02:10:33.887Z,4.90
2022-12-03T02:13:09.638Z,5.23
2022-12-03T02:15:38.474Z,4.17
2022-12-03T02:18:06.941Z,4.30
2022-12-03T02:21:00.242Z,4.63
2022-12-03T02:23:53.093Z,5.90
2022-12-03T02:26:20.385Z,4.50
2022-12-03T02:28:47.180Z,4.10
2022-12-03T02:31:14.149Z,4.40
2022-12-03T02:33:41.058Z,3.97
2022-12-03T02:36:08.294Z,5.20
2022-12-03T02:38:35.885Z,5.00
2022-12-03T02:41:07.562Z,4.60
2022-12-03T02:43:34.614Z,4.70
2022-12-03T02:46:03.756Z,4.80
2022-12-03T02:48:34.817Z,5.07
2022-12-03T02:51:05.358Z,4.27
2022-12-03T02:53:44.565Z,7.10
2022-12-03T02:56:17.478Z,4.07
2022-12-03T02:58:47.057Z,3.57
2022-12-03T03:01:17.129Z,4.70
2022-12-03T03:03:46.564Z,4.53
2022-12-03T03:06:14.829Z,4.77
2022-12-03T03:08:43.001Z,4.47
2022-12-03T03:11:10.470Z,4.40
2022-12-03T03:13:38.364Z,4.20
2022-12-03T03:16:07.090Z,3.73
2022-12-03T03:18:35.141Z,3.80
2022-12-03T03:21:03.065Z,4.63
2022-12-03T03:23:29.881Z,4.10
2022-12-03T03:26:08.695Z,4.37
2022-12-03T03:28:42.623Z,4.50
2022-12-03T03:31:12.410Z,3.80
2022-12-03T03:33:40.594Z,4.60
2022-12-03T03:36:08.280Z,3.90
2022-12-03T03:38:37.018Z,3.47
2022-12-03T03:41:06.890Z,3.80
2022-12-03T03:43:35.597Z,4.17
2022-12-03T03:46:05.462Z,4.33
2022-12-03T03:48:34.666Z,4.43
2022-12-03T03:51:03.874Z,4.23
2022-12-03T03:53:31.073Z,4.13
2022-12-03T03:55:58.081Z,4.30
2022-12-03T03:58:24.918Z,4.50
2022-12-03T04:00:52.127Z,3.80
2022-12-03T04:03:18.969Z,3.93
2022-12-03T04:05:46.752Z,4.13
2022-12-03T04:08:13.675Z,4.50
2022-12-03T04:10:59.168Z,4.63
2022-12-03T04:13:26.014Z,4.30
2022-12-03T04:15:52.825Z,3.83
2022-12-03T04:18:38.026Z,4.60
2022-12-03T04:21:23.354Z,3.90
2022-12-03T04:23:50.188Z,4.17
2022-12-03T04:26:35.597Z,4.20
2022-12-03T04:29:02.584Z,3.50
2022-12-03T04:31:48.117Z,4.13
2022-12-03T04:34:33.651Z,4.90
2022-12-03T04:37:00.460Z,5.37
2022-12-03T04:39:27.310Z,4.70
2022-12-03T04:41:54.284Z,4.20
2022-12-03T04:44:39.256Z,6.20
2022-12-03T04:47:14.947Z,5.40
2022-12-03T04:49:59.596Z,5.50
2022-12-03T04:52:26.464Z,5.70
2022-12-03T04:54:53.527Z,5.10
2022-12-03T04:57:20.506Z,4.90
2022-12-03T05:03:37.531Z,5.37
2022-12-03T05:06:04.412Z,8.57
2022-12-03T05:08:31.251Z,6.60
2022-12-03T05:10:58.119Z,8.47
2022-12-03T05:13:24.992Z,10.03
2022-12-03T05:15:51.856Z,8.30
2022-12-03T05:18:18.723Z,9.20
2022-12-03T05:20:52.765Z,9.30
2022-12-03T05:23:20.297Z,8.60
2022-12-03T05:25:47.116Z,8.37
2022-12-03T05:28:14.230Z,8.77
2022-12-03T05:30:41.286Z,8.07
2022-12-03T05:33:08.656Z,7.67
2022-12-03T05:35:35.940Z,8.33
2022-12-03T05:38:03.167Z,8.03
2022-12-03T05:40:30.408Z,9.50
2022-12-03T05:42:57.363Z,7.80
2022-12-03T05:45:25.813Z,8.40
2022-12-03T05:47:53.809Z,6.77
2022-12-03T05:50:21.600Z,8.00
2022-12-03T05:52:49.074Z,7.50
2022-12-03T05:55:16.837Z,6.53
2022-12-03T05:57:44.288Z,5.30
2022-12-03T06:00:30.887Z,5.07
2022-12-03T06:02:58.296Z,4.80
2022-12-03T06:05:26.110Z,4.83
2022-12-03T06:07:53.963Z,5.23
2022-12-03T06:10:22.504Z,5.13
2022-12-03T06:12:49.901Z,5.27
2022-12-03T06:15:17.560Z,4.43
2022-12-03T06:17:44.896Z,4.87
2022-12-03T06:20:14.796Z,5.97
2022-12-03T06:22:42.189Z,5.00
2022-12-03T06:25:09.604Z,4.33
2022-12-03T06:27:37.214Z,5.13
2022-12-03T06:30:05.559Z,4.67
2022-12-03T06:32:32.937Z,4.83
2022-12-03T06:35:00.157Z,5.60
2022-12-03T06:37:27.389Z,5.20
2022-12-03T06:39:54.588Z,5.23
2022-12-03T06:42:21.874Z,4.57
2022-12-03T06:44:49.141Z,4.73
2022-12-03T06:47:16.388Z,5.13
2022-12-03T06:49:43.908Z,4.67
2022-12-03T06:52:11.124Z,4.73
2022-12-03T06:54:39.464Z,5.07
2022-12-03T06:57:06.826Z,5.40
2022-12-03T06:59:35.874Z,5.47
2022-12-03T07:02:03.248Z,4.87
2022-12-03T07:04:30.586Z,4.43
2022-12-03T07:06:58.041Z,4.70
2022-12-03T07:09:25.482Z,4.90
2022-12-03T07:11:52.716Z,6.60
2022-12-03T07:14:20.041Z,5.70
2022-12-03T07:16:47.780Z,4.90
2022-12-03T07:19:15.808Z,5.00
2022-12-03T07:21:43.081Z,5.90
2022-12-03T07:24:10.375Z,5.97
2022-12-03T07:26:38.072Z,5.17
2022-12-03T07:29:05.624Z,5.13
2022-12-03T07:31:33.032Z,4.73
2022-12-03T07:34:00.279Z,5.10
2022-12-03T07:36:27.478Z,5.43
2022-12-03T07:38:54.701Z,5.70
2022-12-03T07:41:21.902Z,5.20
2022-12-03T07:43:49.141Z,5.17
2022-12-03T07:46:16.453Z,5.50
2022-12-03T07:48:43.707Z,5.67
2022-12-03T07:51:15.179Z,5.40
2022-12-03T07:53:43.012Z,5.30
2022-12-03T07:56:10.237Z,5.33
2022-12-03T07:58:37.456Z,5.80
2022-12-03T08:01:04.692Z,7.20
2022-12-03T08:03:32.046Z,5.93
2022-12-03T08:05:59.339Z,5.60
2022-12-03T08:08:26.517Z,6.90
2022-12-03T08:10:53.735Z,6.50
2022-12-03T08:13:20.957Z,6.37
2022-12-03T08:15:48.204Z,7.93
2022-12-03T08:18:17.377Z,6.47
2022-12-03T08:20:46.126Z,6.73
2022-12-03T08:23:17.485Z,6.17
2022-12-03T08:25:45.641Z,6.67
2022-12-03T08:28:14.546Z,6.87
2022-12-03T08:30:42.738Z,6.97
2022-12-03T08:33:16.269Z,6.60
2022-12-03T08:35:45.250Z,8.00
2022-12-03T08:38:13.181Z,7.30
2022-12-03T08:40:42.722Z,7.23
2022-12-03T08:43:28.957Z,8.17
2022-12-03T08:45:57.050Z,7.03
2022-12-03T08:48:34.459Z,6.43
2022-12-03T08:51:07.472Z,7.83
2022-12-03T08:53:36.724Z,8.10
2022-12-03T08:56:05.590Z,7.57
2022-12-03T08:58:43.767Z,7.70
2022-12-03T09:01:11.147Z,7.63
2022-12-03T09:03:39.878Z,7.27
2022-12-03T09:06:07.394Z,7.93
2022-12-03T09:08:34.646Z,8.00
2022-12-03T09:11:01.984Z,7.60
2022-12-03T09:13:29.212Z,8.33
2022-12-03T09:15:56.440Z,8.53
2022-12-03T09:18:23.662Z,7.87
2022-12-03T09:20:50.885Z,7.50
2022-12-03T09:23:18.090Z,7.30
2022-12-03T09:25:45.290Z,10.10
2022-12-03T09:28:12.487Z,8.63
2022-12-03T09:30:39.777Z,9.37
2022-12-03T09:33:07.094Z,7.57
2022-12-03T09:35:34.394Z,8.73
2022-12-03T09:38:01.576Z,7.73
2022-12-03T09:40:29.748Z,7.33
2022-12-03T09:43:00.967Z,8.53
2022-12-03T09:45:28.238Z,7.17
2022-12-03T09:47:55.796Z,7.77
2022-12-03T09:50:25.235Z,8.00
2022-12-03T09:52:54.930Z,7.50
2022-12-03T09:55:24.954Z,7.23
2022-12-03T09:57:53.001Z,7.60
2022-12-03T10:00:23.519Z,8.67
2022-12-03T10:02:52.170Z,8.50
2022-12-03T10:05:20.750Z,7.50
2022-12-03T10:07:49.445Z,8.27
2022-12-03T10:10:20.817Z,7.57
2022-12-03T10:12:48.553Z,7.57
2022-12-03T10:15:17.874Z,7.30
2022-12-03T10:17:47.768Z,7.90
2022-12-03T10:20:18.196Z,8.53
2022-12-03T10:22:45.294Z,8.50
2022-12-03T10:25:14.764Z,7.43
2022-12-03T10:27:42.436Z,8.00
2022-12-03T10:30:22.406Z,8.27
2022-12-03T10:32:51.288Z,7.47
2022-12-03T10:35:21.973Z,8.67
2022-12-03T10:37:54.921Z,11.03
2022-12-03T10:40:27.396Z,9.10
2022-12-03T10:43:32.598Z,9.00
2022-12-03T10:46:03.888Z,8.13
2022-12-03T10:48:31.212Z,9.43
2022-12-03T10:51:03.503Z,7.43
2022-12-03T10:53:33.055Z,7.87
2022-12-03T10:56:02.977Z,8.20
2022-12-03T10:58:34.496Z,9.53
2022-12-03T11:01:06.181Z,8.17
2022-12-03T11:03:36.915Z,9.00
2022-12-03T11:06:04.155Z,8.77
2022-12-03T11:08:34.458Z,8.10
2022-12-03T11:11:05.849Z,9.53
2022-12-03T11:13:32.599Z,9.10
2022-12-03T11:16:01.333Z,8.23
2022-12-03T11:18:37.290Z,9.30
2022-12-03T11:21:08.657Z,7.80
2022-12-03T11:23:44.615Z,9.60
2022-12-03T11:26:38.700Z,8.47
2022-12-03T11:29:16.104Z,8.43
2022-12-03T11:31:47.960Z,10.10
2022-12-03T11:34:20.704Z,12.77
2022-12-03T11:37:12.404Z,37.37
2022-12-03T11:39:48.060Z,215.23
2022-12-03T11:42:26.526Z,325.60
2022-12-03T11:45:05.373Z,305.07
2022-12-03T11:47:39.982Z,247.70
2022-12-03T11:50:39.858Z,227.70
2022-12-03T11:53:16.041Z,201.60
2022-12-03T11:55:48.857Z,180.70
2022-12-03T11:58:28.611Z,195.97
2022-12-03T12:01:00.744Z,166.50
2022-12-03T12:03:49.486Z,181.43
2022-12-03T12:06:19.160Z,158.63
2022-12-03T12:08:52.053Z,148.23
2022-12-03T12:11:41.536Z,153.80
2022-12-03T12:14:12.564Z,144.13
2022-12-03T12:16:45.924Z,116.53
2022-12-03T12:19:29.515Z,147.07
2022-12-03T12:22:15.924Z,125.03
2022-12-03T12:24:51.642Z,121.53
2022-12-03T12:27:23.379Z,112.90
2022-12-03T12:30:08.250Z,110.80
2022-12-03T12:32:43.650Z,99.87
2022-12-03T12:35:32.626Z,99.37
2022-12-03T12:38:08.831Z,104.17
2022-12-03T12:40:40.879Z,93.50
2022-12-03T12:43:27.524Z,83.60
2022-12-03T12:45:56.511Z,90.07
2022-12-03T12:48:28.256Z,83.03
2022-12-03T12:51:11.784Z,84.07
2022-12-03T12:53:40.710Z,78.43
2022-12-03T12:56:11.852Z,72.43
2022-12-03T12:58:38.642Z,62.17
2022-12-03T13:01:11.424Z,60.90
2022-12-03T13:03:39.524Z,66.83
2022-12-03T13:06:07.398Z,65.45
2022-12-03T13:08:40.344Z,56.90
2022-12-03T13:11:25.087Z,62.27
2022-12-03T13:13:52.564Z,55.23
2022-12-03T13:16:23.199Z,54.63
2022-12-03T13:18:55.045Z,48.57
2022-12-03T13:21:23.489Z,53.43
2022-12-03T13:23:57.968Z,42.93
2022-12-03T13:26:37.793Z,53.40
2022-12-03T13:29:16.715Z,44.67
2022-12-03T13:32:11.571Z,44.47
2022-12-03T13:34:38.527Z,37.73
2022-12-03T13:37:14.320Z,44.97
2022-12-03T13:39:46.801Z,41.40
2022-12-03T13:42:40.660Z,36.50
2022-12-03T13:45:16.758Z,37.47
2022-12-03T13:47:53.817Z,34.30
2022-12-03T13:50:35.616Z,33.20
2022-12-03T13:53:22.321Z,32.77
2022-12-03T13:55:55.422Z,30.50
2022-12-03T13:58:22.214Z,34.20
2022-12-03T14:00:49.225Z,34.53
2022-12-03T14:03:16.146Z,29.00
2022-12-03T14:05:43.037Z,30.23
2022-12-03T14:08:09.999Z,31.10
2022-12-03T14:10:36.827Z,30.23
2022-12-03T14:13:03.636Z,29.90
2022-12-03T14:15:30.455Z,30.20
2022-12-03T14:17:57.349Z,29.50
2022-12-03T14:20:24.224Z,25.43
2022-12-03T14:22:54.034Z,25.47
2022-12-03T14:25:26.024Z,22.70
2022-12-03T14:27:52.851Z,25.33
2022-12-03T14:30:19.740Z,24.90
2022-12-03T14:32:47.503Z,25.13
2022-12-03T14:35:14.408Z,20.07
2022-12-03T14:37:41.395Z,27.07
2022-12-03T14:40:09.174Z,25.40
2022-12-03T14:42:36.832Z,23.37
2022-12-03T14:45:03.963Z,23.33
2022-12-03T14:47:30.846Z,27.70
2022-12-03T14:49:57.968Z,25.10
2022-12-03T14:52:24.899Z,20.27
2022-12-03T14:54:51.700Z,22.90
2022-12-03T14:57:18.674Z,22.40
2022-12-03T14:59:47.202Z,22.20
2022-12-03T15:02:14.268Z,20.67
2022-12-03T15:04:42.089Z,22.30
2022-12-03T15:07:09.726Z,16.87
2022-12-03T15:09:36.711Z,19.90
2022-12-03T15:12:04.710Z,19.63
2022-12-03T15:14:31.556Z,22.50
2022-12-03T15:16:58.544Z,21.53
2022-12-03T15:19:26.114Z,19.30
2022-12-03T15:21:53.011Z,19.93
2022-12-03T15:24:19.831Z,22.10
2022-12-03T15:26:46.738Z,22.70
2022-12-03T15:29:13.533Z,21.20
2022-12-03T15:31:40.403Z,23.33
2022-12-03T15:34:07.389Z,19.53
2022-12-03T15:36:34.203Z,20.70
2022-12-03T15:39:01.048Z,20.10
2022-12-03T15:41:30.720Z,21.53
2022-12-03T15:43:59.948Z,20.40
2022-12-03T15:46:28.119Z,20.37
2022-12-03T15:48:55.802Z,23.10
2022-12-03T15:51:22.944Z,21.07
2022-12-03T15:53:50.413Z,20.50
2022-12-03T15:56:17.239Z,23.40
2022-12-03T15:58:44.327Z,19.97
2022-12-03T16:01:13.697Z,21.23
2022-12-03T16:03:41.877Z,23.10
2022-12-03T16:06:09.144Z,22.90
2022-12-03T16:08:36.113Z,19.03
2022-12-03T16:11:03.056Z,21.00
2022-12-03T16:13:29.888Z,22.30
2022-12-03T16:15:56.750Z,19.80
2022-12-03T16:18:23.708Z,18.90
2022-12-03T16:20:50.584Z,18.60
2022-12-03T16:23:17.419Z,19.23
2022-12-03T16:25:44.381Z,19.73
2022-12-03T16:28:11.280Z,21.60
2022-12-03T16:30:38.205Z,18.27
2022-12-03T16:33:05.158Z,19.17
2022-12-03T16:35:31.982Z,20.13
2022-12-03T16:37:58.760Z,20.10
2022-12-03T16:40:25.787Z,20.77
2022-12-03T16:42:52.637Z,20.90
2022-12-03T16:45:22.460Z,19.30
2022-12-03T16:47:50.080Z,18.73
2022-12-03T16:50:23.075Z,17.13
2022-12-03T16:52:54.518Z,17.27
2022-12-03T16:55:21.382Z,18.20
2022-12-03T16:57:48.288Z,18.20
2022-12-03T17:00:16.296Z,17.70
2022-12-03T17:02:43.215Z,19.40
2022-12-03T17:05:10.112Z,19.37
2022-12-03T17:07:37.011Z,19.03
2022-12-03T17:10:04.743Z,19.63
2022-12-03T17:13:00.693Z,17.47
2022-12-03T17:15:18.468Z,17.63
2022-12-03T17:17:45.304Z,18.00
2022-12-03T17:20:13.378Z,18.23
2022-12-03T17:22:40.718Z,18.37
2022-12-03T17:25:07.946Z,15.20
2022-12-03T17:27:34.867Z,16.87
2022-12-03T17:30:01.731Z,18.00
2022-12-03T17:32:28.734Z,15.27
2022-12-03T17:34:55.601Z,14.57
2022-12-03T17:37:22.812Z,17.40
2022-12-03T17:39:49.624Z,15.97
2022-12-03T17:42:16.451Z,16.90
2022-12-03T17:44:43.346Z,15.90
2022-12-03T17:47:10.170Z,17.10
2022-12-03T17:49:37.076Z,14.83
2022-12-03T17:52:04.393Z,15.87
2022-12-03T17:54:55.194Z,14.50
2022-12-03T17:57:18.579Z,16.60
2022-12-03T17:59:45.435Z,15.40
2022-12-03T18:02:12.426Z,14.33
2022-12-03T18:04:39.324Z,16.47
2022-12-03T18:07:06.218Z,16.80
2022-12-03T18:09:33.689Z,15.27
2022-12-03T18:12:00.556Z,14.93
2022-12-03T18:14:27.450Z,13.80
2022-12-03T18:16:54.265Z,14.00
2022-12-03T18:19:21.087Z,16.13
2022-12-03T18:21:48.192Z,13.83
2022-12-03T18:24:15.082Z,13.07
2022-12-03T18:26:43.314Z,15.77
2022-12-03T18:29:10.206Z,12.27
2022-12-03T18:31:37.100Z,14.53
2022-12-03T18:34:04.468Z,15.40
2022-12-03T18:36:36.030Z,12.13
2022-12-03T18:39:05.084Z,11.40
2022-12-03T18:41:33.646Z,16.80
2022-12-03T18:44:03.990Z,14.27
2022-12-03T18:46:52.540Z,13.80
2022-12-03T18:49:17.758Z,13.10
2022-12-03T18:51:44.637Z,12.17
2022-12-03T18:54:14.576Z,12.90
2022-12-03T18:56:41.558Z,15.70
2022-12-03T18:59:08.933Z,15.60
2022-12-03T19:01:36.487Z,18.60
2022-12-03T19:04:03.612Z,17.90
2022-12-03T19:06:30.698Z,16.03
2022-12-03T19:08:58.013Z,15.03
2022-12-03T19:11:25.151Z,20.53
2022-12-03T19:13:52.217Z,18.80
2022-12-03T19:16:19.309Z,19.53
2022-12-03T19:18:46.235Z,16.00
2022-12-03T19:21:15.684Z,20.60
2022-12-03T19:24:04.226Z,17.43
2022-12-03T19:26:30.279Z,20.00
2022-12-03T19:28:57.152Z,14.70
2022-12-03T19:31:24.055Z,15.63
2022-12-03T19:33:51.933Z,16.53
2022-12-03T19:36:36.689Z,15.83
2022-12-03T19:39:03.534Z,15.33
2022-12-03T19:41:30.811Z,15.33
2022-12-03T19:43:58.538Z,16.23
2022-12-03T19:46:28.945Z,14.27
2022-12-03T19:48:56.008Z,15.20
2022-12-03T19:51:38.254Z,14.60
2022-12-03T19:54:07.011Z,17.07
2022-12-03T19:56:35.035Z,16.47
2022-12-03T19:59:02.262Z,14.80
2022-12-03T20:01:31.207Z,13.50
2022-12-03T20:04:00.559Z,13.57
2022-12-03T20:06:29.857Z,13.37
2022-12-03T20:08:58.348Z,14.63
2022-12-03T20:11:28.060Z,14.13
2022-12-03T20:14:00.792Z,14.53
2022-12-03T20:16:29.389Z,12.83
2022-12-03T20:18:58.560Z,13.57
2022-12-03T20:21:26.348Z,15.63
2022-12-03T20:23:53.463Z,13.90
2022-12-03T20:26:21.637Z,11.00
2022-12-03T20:28:48.765Z,16.50
2022-12-03T20:31:18.636Z,14.57
2022-12-03T20:33:48.442Z,12.83
2022-12-03T20:36:16.973Z,12.50
2022-12-03T20:38:44.256Z,13.37
2022-12-03T20:41:14.346Z,14.50
2022-12-03T20:43:41.816Z,13.10
2022-12-03T20:46:10.837Z,13.47
2022-12-03T20:48:38.290Z,12.70
2022-12-03T20:51:06.938Z,12.50
2022-12-03T20:53:34.891Z,12.57
2022-12-03T20:56:02.816Z,14.40
2022-12-03T20:58:31.626Z,12.00
2022-12-03T21:01:19.014Z,12.73
2022-12-03T21:03:47.343Z,13.57
2022-12-03T21:06:15.121Z,12.10
2022-12-03T21:08:43.089Z,12.00
2022-12-03T21:11:16.424Z,11.97
2022-12-03T21:13:44.418Z,14.50
2022-12-03T21:16:29.842Z,12.20
2022-12-03T21:19:07.339Z,15.40
2022-12-03T21:21:35.546Z,12.30
2022-12-03T21:24:02.344Z,11.43
2022-12-03T21:26:29.249Z,12.80
2022-12-03T21:28:56.292Z,14.03
2022-12-03T21:31:26.349Z,11.63
2022-12-03T21:33:54.458Z,14.03
2022-12-03T21:36:21.824Z,12.40
2022-12-03T21:38:48.785Z,11.53
2022-12-03T21:41:17.106Z,11.80
2022-12-03T21:43:44.714Z,12.07
2022-12-03T21:47:12.464Z,12.57
2022-12-03T21:49:04.120Z,12.53
2022-12-03T21:51:31.159Z,12.30
2022-12-03T21:53:58.091Z,14.50
2022-12-03T21:56:24.950Z,15.23
2022-12-03T21:58:51.822Z,14.07
2022-12-03T22:01:22.272Z,13.93
2022-12-03T22:03:49.781Z,10.47
2022-12-03T22:06:17.790Z,11.53
2022-12-03T22:08:45.206Z,12.20
2022-12-03T22:11:15.330Z,12.20
2022-12-03T22:13:42.329Z,12.63
2022-12-03T22:16:12.219Z,10.63
2022-12-03T22:18:39.417Z,12.33
2022-12-03T22:21:08.230Z,12.23
2022-12-03T22:23:35.222Z,11.60
2022-12-03T22:26:05.085Z,12.57
2022-12-03T22:28:32.944Z,11.10
2022-12-03T22:31:00.200Z,12.23
2022-12-03T22:33:27.111Z,11.33
2022-12-03T22:35:58.730Z,11.83
2022-12-03T22:38:26.086Z,11.93
2022-12-03T22:40:53.051Z,10.67
2022-12-03T22:43:20.962Z,14.50
2022-12-03T22:45:48.344Z,11.60
2022-12-03T22:48:15.329Z,12.40
2022-12-03T22:50:44.720Z,12.33
2022-12-03T22:53:12.709Z,11.17
2022-12-03T22:55:39.685Z,11.73
2022-12-03T22:58:07.112Z,12.60
2022-12-03T23:00:36.818Z,10.30
2022-12-03T23:03:04.799Z,11.17
2022-12-03T23:05:38.537Z,12.80
2022-12-03T23:08:07.074Z,12.30
2022-12-03T23:10:36.233Z,11.73
2022-12-03T23:13:04.464Z,11.30
2022-12-03T23:15:32.473Z,13.13
2022-12-03T23:17:59.406Z,10.30
2022-12-03T23:20:27.016Z,11.77
2022-12-03T23:22:54.792Z,11.43
2022-12-03T23:25:22.095Z,11.93
2022-12-03T23:27:49.318Z,12.43
2022-12-03T23:30:17.209Z,12.13
2022-12-03T23:32:44.595Z,11.57
2022-12-03T23:35:12.732Z,12.53
2022-12-03T23:37:43.092Z,11.80
2022-12-03T23:40:10.931Z,12.30
2022-12-03T23:42:37.758Z,12.47
2022-12-03T23:45:04.947Z,12.23
2022-12-03T23:47:31.771Z,11.50
2022-12-03T23:49:58.628Z,12.93
2022-12-03T23:52:25.666Z,11.30
2022-12-03T23:54:52.447Z,11.53
2022-12-03T23:57:19.390Z,11.93
2022-12-03T23:59:46.228Z,12.77
